sensor_id;sensor_type;location;lat;lon;timestamp;temperature;humidity
997;DHT22;487;50.126;8.698;2024-02-28T00:01:49;6.70;99.90
997;DHT22;487;50.126;8.698;2024-02-28T00:04:18;6.70;99.90
997;DHT22;487;50.126;8.698;2024-02-28T00:06:46;6.60;99.90
997;DHT22;487;50.126;8.698;2024-02-28T00:09:15;6.60;99.90
997;DHT22;487;50.126;8.698;2024-02-28T00:11:43;6.60;99.90
997;DHT22;487;50.126;8.698;2024-02-28T00:14:12;6.60;99.90
997;DHT22;487;50.126;8.698;2024-02-28T00:16:40;6.60;99.90
997;DHT22;487;50.126;8.698;2024-02-28T00:19:08;6.60;99.90
997;DHT22;487;50.126;8.698;2024-02-28T00:21:38;6.60;99.90
997;DHT22;487;50.126;8.698;2024-02-28T00:24:06;6.70;99.90
997;DHT22;487;50.126;8.698;2024-02-28T00:26:36;6.70;99.90
997;DHT22;487;50.126;8.698;2024-02-28T00:29:04;6.60;99.90
997;DHT22;487;50.126;8.698;2024-02-28T00:31:31;6.60;99.90
997;DHT22;487;50.126;8.698;2024-02-28T00:33:59;6.60;99.90
997;DHT22;487;50.126;8.698;2024-02-28T00:36:27;6.60;99.90
997;DHT22;487;50.126;8.698;2024-02-28T00:39:05;6.50;99.90
997;DHT22;487;50.126;8.698;2024-02-28T00:41:33;6.50;99.90
997;DHT22;487;50.126;8.698;2024-02-28T00:44:02;6.50;99.90
997;DHT22;487;50.126;8.698;2024-02-28T00:46:30;6.40;99.90
997;DHT22;487;50.126;8.698;2024-02-28T00:48:58;6.40;99.90
997;DHT22;487;50.126;8.698;2024-02-28T00:51:26;6.40;99.90
997;DHT22;487;50.126;8.698;2024-02-28T00:53:54;6.30;99.90
997;DHT22;487;50.126;8.698;2024-02-28T00:56:21;6.30;99.90
997;DHT22;487;50.126;8.698;2024-02-28T00:58:51;6.20;99.90
997;DHT22;487;50.126;8.698;2024-02-28T01:01:20;6.20;99.90
997;DHT22;487;50.126;8.698;2024-02-28T01:03:48;6.10;99.90
997;DHT22;487;50.126;8.698;2024-02-28T01:06:16;6.10;99.90
997;DHT22;487;50.126;8.698;2024-02-28T01:08:44;6.10;99.90
997;DHT22;487;50.126;8.698;2024-02-28T01:11:12;6.10;99.90
997;DHT22;487;50.126;8.698;2024-02-28T01:13:40;6.10;99.90
997;DHT22;487;50.126;8.698;2024-02-28T01:16:08;6.10;99.90
997;DHT22;487;50.126;8.698;2024-02-28T01:18:37;6.10;99.90
997;DHT22;487;50.126;8.698;2024-02-28T01:21:05;6.00;99.90
997;DHT22;487;50.126;8.698;2024-02-28T01:23:33;6.00;99.90
997;DHT22;487;50.126;8.698;2024-02-28T01:26:01;6.10;99.90
997;DHT22;487;50.126;8.698;2024-02-28T01:28:30;6.10;99.90
997;DHT22;487;50.126;8.698;2024-02-28T01:30:58;6.10;99.90
997;DHT22;487;50.126;8.698;2024-02-28T01:33:27;6.10;99.90
997;DHT22;487;50.126;8.698;2024-02-28T01:35:56;6.10;99.90
997;DHT22;487;50.126;8.698;2024-02-28T01:38:25;6.10;99.90
997;DHT22;487;50.126;8.698;2024-02-28T01:40:54;6.00;99.90
997;DHT22;487;50.126;8.698;2024-02-28T01:43:21;6.00;99.90
997;DHT22;487;50.126;8.698;2024-02-28T01:45:50;6.10;99.90
997;DHT22;487;50.126;8.698;2024-02-28T01:48:18;6.00;99.90
997;DHT22;487;50.126;8.698;2024-02-28T01:50:46;6.00;99.90
997;DHT22;487;50.126;8.698;2024-02-28T01:53:15;6.10;99.90
997;DHT22;487;50.126;8.698;2024-02-28T01:55:47;6.10;99.90
997;DHT22;487;50.126;8.698;2024-02-28T01:58:15;6.00;99.90
997;DHT22;487;50.126;8.698;2024-02-28T02:00:43;6.00;99.90
997;DHT22;487;50.126;8.698;2024-02-28T02:03:12;6.00;99.90
997;DHT22;487;50.126;8.698;2024-02-28T02:05:41;6.00;99.90
997;DHT22;487;50.126;8.698;2024-02-28T02:08:10;6.00;99.90
997;DHT22;487;50.126;8.698;2024-02-28T02:10:39;5.90;99.90
997;DHT22;487;50.126;8.698;2024-02-28T02:13:07;5.90;99.90
997;DHT22;487;50.126;8.698;2024-02-28T02:15:35;5.90;99.90
997;DHT22;487;50.126;8.698;2024-02-28T02:18:03;5.90;99.90
997;DHT22;487;50.126;8.698;2024-02-28T02:20:32;5.80;99.90
997;DHT22;487;50.126;8.698;2024-02-28T02:23:04;5.80;99.90
997;DHT22;487;50.126;8.698;2024-02-28T02:25:32;5.80;99.90
997;DHT22;487;50.126;8.698;2024-02-28T02:28:00;5.80;99.90
997;DHT22;487;50.126;8.698;2024-02-28T02:30:28;5.80;99.90
997;DHT22;487;50.126;8.698;2024-02-28T02:32:56;5.80;99.90
997;DHT22;487;50.126;8.698;2024-02-28T02:35:24;5.80;99.90
997;DHT22;487;50.126;8.698;2024-02-28T02:37:51;5.70;99.90
997;DHT22;487;50.126;8.698;2024-02-28T02:40:21;5.70;99.90
997;DHT22;487;50.126;8.698;2024-02-28T02:42:49;5.70;99.90
997;DHT22;487;50.126;8.698;2024-02-28T02:47:45;5.70;99.90
997;DHT22;487;50.126;8.698;2024-02-28T02:50:13;5.60;99.90
997;DHT22;487;50.126;8.698;2024-02-28T02:52:41;5.60;99.90
997;DHT22;487;50.126;8.698;2024-02-28T02:55:09;5.60;99.90
997;DHT22;487;50.126;8.698;2024-02-28T02:57:41;5.60;99.90
997;DHT22;487;50.126;8.698;2024-02-28T03:00:11;5.60;99.90
997;DHT22;487;50.126;8.698;2024-02-28T03:02:42;5.50;99.90
997;DHT22;487;50.126;8.698;2024-02-28T03:05:09;5.60;99.90
997;DHT22;487;50.126;8.698;2024-02-28T03:07:40;5.60;99.90
997;DHT22;487;50.126;8.698;2024-02-28T03:10:08;5.50;99.90
997;DHT22;487;50.126;8.698;2024-02-28T03:12:40;5.50;99.90
997;DHT22;487;50.126;8.698;2024-02-28T03:15:08;5.50;99.90
997;DHT22;487;50.126;8.698;2024-02-28T03:17:36;5.50;99.90
997;DHT22;487;50.126;8.698;2024-02-28T03:20:09;5.50;99.90
997;DHT22;487;50.126;8.698;2024-02-28T03:22:38;5.40;99.90
997;DHT22;487;50.126;8.698;2024-02-28T03:25:09;5.40;99.90
997;DHT22;487;50.126;8.698;2024-02-28T03:27:37;5.40;99.90
997;DHT22;487;50.126;8.698;2024-02-28T03:30:07;5.30;99.90
997;DHT22;487;50.126;8.698;2024-02-28T03:32:36;5.30;99.90
997;DHT22;487;50.126;8.698;2024-02-28T03:35:06;5.30;99.90
997;DHT22;487;50.126;8.698;2024-02-28T03:37:36;5.30;99.90
997;DHT22;487;50.126;8.698;2024-02-28T03:40:05;5.20;99.90
997;DHT22;487;50.126;8.698;2024-02-28T03:45:02;5.20;99.90
997;DHT22;487;50.126;8.698;2024-02-28T03:47:32;5.10;99.90
997;DHT22;487;50.126;8.698;2024-02-28T03:50:05;5.20;99.90
997;DHT22;487;50.126;8.698;2024-02-28T03:52:33;5.20;99.90
997;DHT22;487;50.126;8.698;2024-02-28T03:57:30;5.00;99.90
997;DHT22;487;50.126;8.698;2024-02-28T03:59:58;5.00;99.90
997;DHT22;487;50.126;8.698;2024-02-28T04:02:30;5.00;99.90
997;DHT22;487;50.126;8.698;2024-02-28T04:05:00;5.00;99.90
997;DHT22;487;50.126;8.698;2024-02-28T04:07:28;5.10;99.90
997;DHT22;487;50.126;8.698;2024-02-28T04:09:58;5.10;99.90
997;DHT22;487;50.126;8.698;2024-02-28T04:12:25;5.10;99.90
997;DHT22;487;50.126;8.698;2024-02-28T04:14:56;5.10;99.90
997;DHT22;487;50.126;8.698;2024-02-28T04:17:26;5.10;99.90
997;DHT22;487;50.126;8.698;2024-02-28T04:19:56;5.00;99.90
997;DHT22;487;50.126;8.698;2024-02-28T04:22:26;5.00;99.90
997;DHT22;487;50.126;8.698;2024-02-28T04:24:54;5.00;99.90
997;DHT22;487;50.126;8.698;2024-02-28T04:27:24;5.00;99.90
997;DHT22;487;50.126;8.698;2024-02-28T04:29:52;5.00;99.90
997;DHT22;487;50.126;8.698;2024-02-28T04:44:52;4.90;99.90
997;DHT22;487;50.126;8.698;2024-02-28T04:47:20;3.50;99.90
997;DHT22;487;50.126;8.698;2024-02-28T04:52:27;4.90;99.90
997;DHT22;487;50.126;8.698;2024-02-28T04:54:58;4.90;99.90
997;DHT22;487;50.126;8.698;2024-02-28T04:57:26;4.90;99.90
997;DHT22;487;50.126;8.698;2024-02-28T04:59:54;4.90;99.90
997;DHT22;487;50.126;8.698;2024-02-28T05:02:22;4.90;99.90
997;DHT22;487;50.126;8.698;2024-02-28T05:04:52;4.90;99.90
997;DHT22;487;50.126;8.698;2024-02-28T05:07:20;4.90;99.90
997;DHT22;487;50.126;8.698;2024-02-28T05:09:52;4.80;99.90
997;DHT22;487;50.126;8.698;2024-02-28T05:12:23;4.80;99.90
997;DHT22;487;50.126;8.698;2024-02-28T05:14:51;4.70;99.90
997;DHT22;487;50.126;8.698;2024-02-28T05:17:22;4.70;99.90
997;DHT22;487;50.126;8.698;2024-02-28T05:19:51;4.70;99.90
997;DHT22;487;50.126;8.698;2024-02-28T05:22:19;4.70;99.90
997;DHT22;487;50.126;8.698;2024-02-28T05:24:47;4.70;99.90
997;DHT22;487;50.126;8.698;2024-02-28T05:27:16;4.60;99.90
997;DHT22;487;50.126;8.698;2024-02-28T05:29:46;4.60;99.90
997;DHT22;487;50.126;8.698;2024-02-28T05:32:14;4.60;99.90
997;DHT22;487;50.126;8.698;2024-02-28T05:37:12;4.60;99.90
997;DHT22;487;50.126;8.698;2024-02-28T05:39:40;4.60;99.90
997;DHT22;487;50.126;8.698;2024-02-28T05:42:08;4.60;99.90
997;DHT22;487;50.126;8.698;2024-02-28T05:44:36;4.60;99.90
997;DHT22;487;50.126;8.698;2024-02-28T05:47:06;4.60;99.90
997;DHT22;487;50.126;8.698;2024-02-28T05:49:34;4.60;99.90
997;DHT22;487;50.126;8.698;2024-02-28T05:52:02;4.60;99.90
997;DHT22;487;50.126;8.698;2024-02-28T05:54:32;4.60;99.90
997;DHT22;487;50.126;8.698;2024-02-28T05:57:03;4.70;99.90
997;DHT22;487;50.126;8.698;2024-02-28T05:59:31;4.70;99.90
997;DHT22;487;50.126;8.698;2024-02-28T06:01:59;4.70;99.90
997;DHT22;487;50.126;8.698;2024-02-28T06:04:28;4.70;99.90
997;DHT22;487;50.126;8.698;2024-02-28T06:06:58;4.70;99.90
997;DHT22;487;50.126;8.698;2024-02-28T06:09:32;4.70;99.90
997;DHT22;487;50.126;8.698;2024-02-28T06:12:00;4.70;99.90
997;DHT22;487;50.126;8.698;2024-02-28T06:14:30;4.70;99.90
997;DHT22;487;50.126;8.698;2024-02-28T06:16:57;4.70;99.90
997;DHT22;487;50.126;8.698;2024-02-28T06:19:25;4.80;99.90
997;DHT22;487;50.126;8.698;2024-02-28T06:21:55;4.80;99.90
997;DHT22;487;50.126;8.698;2024-02-28T06:24:25;4.80;99.90
997;DHT22;487;50.126;8.698;2024-02-28T06:26:53;4.70;99.90
997;DHT22;487;50.126;8.698;2024-02-28T06:31:50;4.70;99.90
997;DHT22;487;50.126;8.698;2024-02-28T06:34:21;4.70;99.90
997;DHT22;487;50.126;8.698;2024-02-28T06:36:56;4.70;99.90
997;DHT22;487;50.126;8.698;2024-02-28T06:39:24;4.70;99.90
997;DHT22;487;50.126;8.698;2024-02-28T06:41:52;4.70;99.90
997;DHT22;487;50.126;8.698;2024-02-28T06:44:20;4.80;99.90
997;DHT22;487;50.126;8.698;2024-02-28T06:46:48;4.80;99.90
997;DHT22;487;50.126;8.698;2024-02-28T06:49:18;4.80;99.90
997;DHT22;487;50.126;8.698;2024-02-28T06:51:46;4.70;99.90
997;DHT22;487;50.126;8.698;2024-02-28T06:54:18;4.70;99.90
997;DHT22;487;50.126;8.698;2024-02-28T06:56:47;4.70;99.90
997;DHT22;487;50.126;8.698;2024-02-28T06:59:15;4.70;99.90
997;DHT22;487;50.126;8.698;2024-02-28T07:01:43;4.70;99.90
997;DHT22;487;50.126;8.698;2024-02-28T07:04:12;4.70;99.90
997;DHT22;487;50.126;8.698;2024-02-28T07:06:41;4.70;99.90
997;DHT22;487;50.126;8.698;2024-02-28T07:09:10;4.70;99.90
997;DHT22;487;50.126;8.698;2024-02-28T07:11:40;4.70;99.90
997;DHT22;487;50.126;8.698;2024-02-28T07:14:08;4.70;99.90
997;DHT22;487;50.126;8.698;2024-02-28T07:19:10;4.70;99.90
997;DHT22;487;50.126;8.698;2024-02-28T07:21:38;4.70;99.90
997;DHT22;487;50.126;8.698;2024-02-28T07:24:07;4.70;99.90
997;DHT22;487;50.126;8.698;2024-02-28T07:26:35;4.60;99.90
997;DHT22;487;50.126;8.698;2024-02-28T07:34:08;4.50;99.90
997;DHT22;487;50.126;8.698;2024-02-28T07:36:36;4.50;99.90
997;DHT22;487;50.126;8.698;2024-02-28T07:39:04;4.60;99.90
997;DHT22;487;50.126;8.698;2024-02-28T07:41:32;4.60;99.90
997;DHT22;487;50.126;8.698;2024-02-28T07:44:00;4.70;99.90
997;DHT22;487;50.126;8.698;2024-02-28T07:48:58;4.60;99.90
997;DHT22;487;50.126;8.698;2024-02-28T07:51:28;4.60;99.90
997;DHT22;487;50.126;8.698;2024-02-28T07:53:56;4.60;99.90
997;DHT22;487;50.126;8.698;2024-02-28T07:56:24;4.60;99.90
997;DHT22;487;50.126;8.698;2024-02-28T07:58:52;4.50;99.90
997;DHT22;487;50.126;8.698;2024-02-28T08:01:20;4.60;99.90
997;DHT22;487;50.126;8.698;2024-02-28T08:06:19;4.60;99.90
997;DHT22;487;50.126;8.698;2024-02-28T08:08:47;4.60;99.90
997;DHT22;487;50.126;8.698;2024-02-28T08:11:15;4.60;99.90
997;DHT22;487;50.126;8.698;2024-02-28T08:13:43;4.60;99.90
997;DHT22;487;50.126;8.698;2024-02-28T08:16:11;4.60;99.90
997;DHT22;487;50.126;8.698;2024-02-28T08:18:40;4.60;99.90
997;DHT22;487;50.126;8.698;2024-02-28T08:21:10;4.50;99.90
997;DHT22;487;50.126;8.698;2024-02-28T08:23:38;4.50;99.90
997;DHT22;487;50.126;8.698;2024-02-28T08:26:06;4.50;99.90
997;DHT22;487;50.126;8.698;2024-02-28T08:28:33;4.60;99.90
997;DHT22;487;50.126;8.698;2024-02-28T08:31:01;4.60;99.90
997;DHT22;487;50.126;8.698;2024-02-28T08:33:31;4.50;99.90
997;DHT22;487;50.126;8.698;2024-02-28T08:35:59;4.60;99.90
997;DHT22;487;50.126;8.698;2024-02-28T08:38:30;4.60;99.90
997;DHT22;487;50.126;8.698;2024-02-28T08:40:57;4.60;99.90
997;DHT22;487;50.126;8.698;2024-02-28T08:43:25;4.60;99.90
997;DHT22;487;50.126;8.698;2024-02-28T08:45:53;4.70;99.90
997;DHT22;487;50.126;8.698;2024-02-28T08:48:22;4.70;99.90
997;DHT22;487;50.126;8.698;2024-02-28T08:50:50;4.70;99.90
997;DHT22;487;50.126;8.698;2024-02-28T08:53:18;4.80;99.90
997;DHT22;487;50.126;8.698;2024-02-28T08:55:47;4.80;99.90
997;DHT22;487;50.126;8.698;2024-02-28T08:58:16;4.70;99.90
997;DHT22;487;50.126;8.698;2024-02-28T09:00:44;4.70;99.90
997;DHT22;487;50.126;8.698;2024-02-28T09:03:12;4.80;99.90
997;DHT22;487;50.126;8.698;2024-02-28T09:05:40;4.70;99.90
997;DHT22;487;50.126;8.698;2024-02-28T09:08:08;4.70;99.90
997;DHT22;487;50.126;8.698;2024-02-28T09:10:40;4.80;99.90
997;DHT22;487;50.126;8.698;2024-02-28T09:13:09;4.80;99.90
997;DHT22;487;50.126;8.698;2024-02-28T09:15:39;4.80;99.90
997;DHT22;487;50.126;8.698;2024-02-28T09:18:07;4.80;99.90
997;DHT22;487;50.126;8.698;2024-02-28T09:20:36;4.70;99.90
997;DHT22;487;50.126;8.698;2024-02-28T09:23:04;4.70;99.90
997;DHT22;487;50.126;8.698;2024-02-28T09:25:33;4.70;99.90
997;DHT22;487;50.126;8.698;2024-02-28T09:28:02;4.70;99.90
997;DHT22;487;50.126;8.698;2024-02-28T09:30:31;4.70;99.90
997;DHT22;487;50.126;8.698;2024-02-28T09:33:11;4.70;99.90
997;DHT22;487;50.126;8.698;2024-02-28T09:35:40;4.80;99.90
997;DHT22;487;50.126;8.698;2024-02-28T09:38:08;4.70;99.90
997;DHT22;487;50.126;8.698;2024-02-28T09:40:36;4.80;99.90
997;DHT22;487;50.126;8.698;2024-02-28T09:45:34;5.00;99.90
997;DHT22;487;50.126;8.698;2024-02-28T09:48:03;5.00;99.90
997;DHT22;487;50.126;8.698;2024-02-28T09:50:31;5.00;99.90
997;DHT22;487;50.126;8.698;2024-02-28T09:52:59;5.20;99.90
997;DHT22;487;50.126;8.698;2024-02-28T09:55:36;5.30;99.90
997;DHT22;487;50.126;8.698;2024-02-28T10:00:39;5.40;99.90
997;DHT22;487;50.126;8.698;2024-02-28T10:03:14;5.40;99.90
997;DHT22;487;50.126;8.698;2024-02-28T10:05:44;5.40;99.90
997;DHT22;487;50.126;8.698;2024-02-28T10:08:12;5.60;99.90
997;DHT22;487;50.126;8.698;2024-02-28T10:10:45;5.70;99.90
997;DHT22;487;50.126;8.698;2024-02-28T10:13:16;5.80;99.90
997;DHT22;487;50.126;8.698;2024-02-28T10:15:45;5.90;99.90
997;DHT22;487;50.126;8.698;2024-02-28T10:18:13;5.90;99.90
997;DHT22;487;50.126;8.698;2024-02-28T10:20:41;6.00;99.90
997;DHT22;487;50.126;8.698;2024-02-28T10:23:10;6.10;99.90
997;DHT22;487;50.126;8.698;2024-02-28T10:25:44;6.10;99.90
997;DHT22;487;50.126;8.698;2024-02-28T10:28:23;6.30;99.90
997;DHT22;487;50.126;8.698;2024-02-28T10:30:53;6.30;99.90
997;DHT22;487;50.126;8.698;2024-02-28T10:33:26;6.40;99.90
997;DHT22;487;50.126;8.698;2024-02-28T10:35:56;6.40;99.90
997;DHT22;487;50.126;8.698;2024-02-28T10:38:25;6.50;99.90
997;DHT22;487;50.126;8.698;2024-02-28T10:40:54;6.50;99.90
997;DHT22;487;50.126;8.698;2024-02-28T10:43:23;6.50;99.90
997;DHT22;487;50.126;8.698;2024-02-28T10:45:56;6.50;99.90
997;DHT22;487;50.126;8.698;2024-02-28T10:48:44;6.50;99.90
997;DHT22;487;50.126;8.698;2024-02-28T10:51:15;6.60;99.90
997;DHT22;487;50.126;8.698;2024-02-28T10:53:46;6.60;99.90
997;DHT22;487;50.126;8.698;2024-02-28T10:56:19;6.60;99.90
997;DHT22;487;50.126;8.698;2024-02-28T10:58:51;6.60;99.90
997;DHT22;487;50.126;8.698;2024-02-28T11:01:21;6.70;99.90
997;DHT22;487;50.126;8.698;2024-02-28T11:03:50;6.70;99.90
997;DHT22;487;50.126;8.698;2024-02-28T11:06:19;6.80;99.90
997;DHT22;487;50.126;8.698;2024-02-28T11:08:49;6.90;99.90
997;DHT22;487;50.126;8.698;2024-02-28T11:11:21;7.00;99.90
997;DHT22;487;50.126;8.698;2024-02-28T11:13:52;7.10;99.90
997;DHT22;487;50.126;8.698;2024-02-28T11:16:29;7.10;99.90
997;DHT22;487;50.126;8.698;2024-02-28T11:18:58;7.30;99.90
997;DHT22;487;50.126;8.698;2024-02-28T11:23:59;7.50;99.90
997;DHT22;487;50.126;8.698;2024-02-28T11:26:27;7.60;99.90
997;DHT22;487;50.126;8.698;2024-02-28T11:28:55;7.50;99.90
997;DHT22;487;50.126;8.698;2024-02-28T11:31:23;6.30;99.90
997;DHT22;487;50.126;8.698;2024-02-28T11:33:52;7.50;99.90
997;DHT22;487;50.126;8.698;2024-02-28T11:36:20;7.60;99.90
997;DHT22;487;50.126;8.698;2024-02-28T11:38:49;7.70;99.90
997;DHT22;487;50.126;8.698;2024-02-28T11:41:25;7.70;99.90
997;DHT22;487;50.126;8.698;2024-02-28T11:43:54;7.70;99.90
997;DHT22;487;50.126;8.698;2024-02-28T11:46:23;7.70;99.90
997;DHT22;487;50.126;8.698;2024-02-28T11:48:53;7.80;99.90
997;DHT22;487;50.126;8.698;2024-02-28T11:53:50;7.70;99.90
997;DHT22;487;50.126;8.698;2024-02-28T11:56:19;7.70;99.90
997;DHT22;487;50.126;8.698;2024-02-28T11:58:51;7.80;99.90
997;DHT22;487;50.126;8.698;2024-02-28T12:01:19;7.80;99.90
997;DHT22;487;50.126;8.698;2024-02-28T12:03:48;7.80;99.90
997;DHT22;487;50.126;8.698;2024-02-28T12:06:17;7.90;99.90
997;DHT22;487;50.126;8.698;2024-02-28T12:08:45;8.00;99.90
997;DHT22;487;50.126;8.698;2024-02-28T12:11:13;7.90;99.90
997;DHT22;487;50.126;8.698;2024-02-28T12:13:41;8.10;99.90
997;DHT22;487;50.126;8.698;2024-02-28T12:16:12;8.20;99.90
997;DHT22;487;50.126;8.698;2024-02-28T12:18:40;8.40;99.90
997;DHT22;487;50.126;8.698;2024-02-28T12:21:09;8.20;99.90
997;DHT22;487;50.126;8.698;2024-02-28T12:23:38;8.20;99.90
997;DHT22;487;50.126;8.698;2024-02-28T12:26:06;8.30;99.90
997;DHT22;487;50.126;8.698;2024-02-28T12:28:34;8.30;99.90
997;DHT22;487;50.126;8.698;2024-02-28T12:31:02;8.30;99.90
997;DHT22;487;50.126;8.698;2024-02-28T12:33:35;8.40;99.90
997;DHT22;487;50.126;8.698;2024-02-28T12:36:03;8.40;99.90
997;DHT22;487;50.126;8.698;2024-02-28T12:38:31;8.60;99.90
997;DHT22;487;50.126;8.698;2024-02-28T12:41:00;8.70;99.90
997;DHT22;487;50.126;8.698;2024-02-28T12:43:29;8.80;99.90
997;DHT22;487;50.126;8.698;2024-02-28T12:48:26;8.90;99.90
997;DHT22;487;50.126;8.698;2024-02-28T12:53:22;9.10;99.90
997;DHT22;487;50.126;8.698;2024-02-28T12:55:51;9.20;99.90
997;DHT22;487;50.126;8.698;2024-02-28T13:00:50;9.30;99.90
997;DHT22;487;50.126;8.698;2024-02-28T13:03:18;9.50;99.90
997;DHT22;487;50.126;8.698;2024-02-28T13:05:46;9.50;99.90
997;DHT22;487;50.126;8.698;2024-02-28T13:13:10;9.80;99.90
997;DHT22;487;50.126;8.698;2024-02-28T13:15:41;9.70;99.90
997;DHT22;487;50.126;8.698;2024-02-28T13:18:11;9.90;99.90
997;DHT22;487;50.126;8.698;2024-02-28T13:20:39;9.90;99.90
997;DHT22;487;50.126;8.698;2024-02-28T13:23:08;10.00;99.90
997;DHT22;487;50.126;8.698;2024-02-28T13:28:05;10.00;99.90
997;DHT22;487;50.126;8.698;2024-02-28T13:30:35;10.00;99.90
997;DHT22;487;50.126;8.698;2024-02-28T13:33:05;10.10;99.90
997;DHT22;487;50.126;8.698;2024-02-28T13:40:30;10.30;99.90
997;DHT22;487;50.126;8.698;2024-02-28T13:45:27;10.30;99.40
997;DHT22;487;50.126;8.698;2024-02-28T13:47:58;10.40;99.00
997;DHT22;487;50.126;8.698;2024-02-28T13:50:27;10.40;96.20
997;DHT22;487;50.126;8.698;2024-02-28T13:52:58;10.40;95.60
997;DHT22;487;50.126;8.698;2024-02-28T13:55:27;10.50;99.60
997;DHT22;487;50.126;8.698;2024-02-28T13:57:55;10.50;99.20
997;DHT22;487;50.126;8.698;2024-02-28T14:05:20;10.70;92.20
997;DHT22;487;50.126;8.698;2024-02-28T14:12:49;10.80;86.20
997;DHT22;487;50.126;8.698;2024-02-28T14:15:19;10.90;79.80
997;DHT22;487;50.126;8.698;2024-02-28T14:17:47;10.80;77.90
997;DHT22;487;50.126;8.698;2024-02-28T14:20:15;10.80;79.40
997;DHT22;487;50.126;8.698;2024-02-28T14:22:43;10.80;88.70
997;DHT22;487;50.126;8.698;2024-02-28T14:25:14;10.80;89.80
997;DHT22;487;50.126;8.698;2024-02-28T14:27:44;10.80;89.00
997;DHT22;487;50.126;8.698;2024-02-28T14:30:13;10.80;79.20
997;DHT22;487;50.126;8.698;2024-02-28T14:32:43;10.80;74.00
997;DHT22;487;50.126;8.698;2024-02-28T14:35:11;10.70;68.80
997;DHT22;487;50.126;8.698;2024-02-28T14:37:39;10.70;68.40
997;DHT22;487;50.126;8.698;2024-02-28T14:40:08;10.70;68.00
997;DHT22;487;50.126;8.698;2024-02-28T14:42:39;10.80;77.30
997;DHT22;487;50.126;8.698;2024-02-28T14:45:08;10.80;64.80
997;DHT22;487;50.126;8.698;2024-02-28T14:47:37;10.80;65.60
997;DHT22;487;50.126;8.698;2024-02-28T14:50:06;11.40;65.80
997;DHT22;487;50.126;8.698;2024-02-28T14:52:36;10.90;70.90
997;DHT22;487;50.126;8.698;2024-02-28T14:55:05;10.90;63.20
997;DHT22;487;50.126;8.698;2024-02-28T14:57:33;11.00;59.40
997;DHT22;487;50.126;8.698;2024-02-28T15:00:06;11.00;44.40
997;DHT22;487;50.126;8.698;2024-02-28T15:02:35;11.10;54.20
997;DHT22;487;50.126;8.698;2024-02-28T15:05:04;11.20;65.80
997;DHT22;487;50.126;8.698;2024-02-28T15:07:33;11.30;80.30
997;DHT22;487;50.126;8.698;2024-02-28T15:10:02;11.30;48.10
997;DHT22;487;50.126;8.698;2024-02-28T15:12:30;11.30;54.30
997;DHT22;487;50.126;8.698;2024-02-28T15:14:59;11.30;38.30
997;DHT22;487;50.126;8.698;2024-02-28T15:17:30;11.30;49.10
997;DHT22;487;50.126;8.698;2024-02-28T15:19:58;11.40;35.60
997;DHT22;487;50.126;8.698;2024-02-28T15:22:29;11.40;34.40
997;DHT22;487;50.126;8.698;2024-02-28T15:27:25;11.50;33.10
997;DHT22;487;50.126;8.698;2024-02-28T15:29:53;11.60;34.30
997;DHT22;487;50.126;8.698;2024-02-28T15:32:21;11.60;29.30
997;DHT22;487;50.126;8.698;2024-02-28T15:34:50;11.60;26.80
997;DHT22;487;50.126;8.698;2024-02-28T15:37:19;11.60;25.30
997;DHT22;487;50.126;8.698;2024-02-28T15:39:47;11.60;25.80
997;DHT22;487;50.126;8.698;2024-02-28T15:42:15;11.50;25.30
997;DHT22;487;50.126;8.698;2024-02-28T15:44:43;11.60;25.30
997;DHT22;487;50.126;8.698;2024-02-28T15:47:11;11.50;34.50
997;DHT22;487;50.126;8.698;2024-02-28T15:49:39;11.60;26.30
997;DHT22;487;50.126;8.698;2024-02-28T15:52:09;11.60;35.20
997;DHT22;487;50.126;8.698;2024-02-28T15:54:37;11.60;34.40
997;DHT22;487;50.126;8.698;2024-02-28T15:57:05;11.70;27.20
997;DHT22;487;50.126;8.698;2024-02-28T15:59:33;11.70;27.00
997;DHT22;487;50.126;8.698;2024-02-28T16:02:03;11.70;22.70
997;DHT22;487;50.126;8.698;2024-02-28T16:04:32;11.60;22.20
997;DHT22;487;50.126;8.698;2024-02-28T16:07:01;11.50;22.20
997;DHT22;487;50.126;8.698;2024-02-28T16:11:59;11.30;22.70
997;DHT22;487;50.126;8.698;2024-02-28T16:14:27;11.30;22.80
997;DHT22;487;50.126;8.698;2024-02-28T16:16:55;11.20;23.40
997;DHT22;487;50.126;8.698;2024-02-28T16:19:22;11.10;23.80
997;DHT22;487;50.126;8.698;2024-02-28T16:21:53;11.10;32.80
997;DHT22;487;50.126;8.698;2024-02-28T16:24:22;11.10;32.80
997;DHT22;487;50.126;8.698;2024-02-28T16:26:51;11.00;32.60
997;DHT22;487;50.126;8.698;2024-02-28T16:29:19;10.80;23.50
997;DHT22;487;50.126;8.698;2024-02-28T16:31:47;10.80;24.00
997;DHT22;487;50.126;8.698;2024-02-28T16:34:17;10.70;24.10
997;DHT22;487;50.126;8.698;2024-02-28T16:36:46;10.60;24.30
997;DHT22;487;50.126;8.698;2024-02-28T16:39:15;10.60;24.90
997;DHT22;487;50.126;8.698;2024-02-28T16:41:44;10.50;26.20
997;DHT22;487;50.126;8.698;2024-02-28T16:44:14;10.50;35.70
997;DHT22;487;50.126;8.698;2024-02-28T16:51:38;10.10;26.10
997;DHT22;487;50.126;8.698;2024-02-28T16:54:09;10.10;26.30
997;DHT22;487;50.126;8.698;2024-02-28T16:56:38;9.90;28.20
997;DHT22;487;50.126;8.698;2024-02-28T16:59:06;9.90;26.70
997;DHT22;487;50.126;8.698;2024-02-28T17:01:37;9.80;26.50
997;DHT22;487;50.126;8.698;2024-02-28T17:04:05;9.80;27.20
997;DHT22;487;50.126;8.698;2024-02-28T17:06:33;9.80;27.40
997;DHT22;487;50.126;8.698;2024-02-28T17:09:01;9.70;27.70
997;DHT22;487;50.126;8.698;2024-02-28T17:11:29;9.70;28.10
997;DHT22;487;50.126;8.698;2024-02-28T17:13:57;7.70;36.10
997;DHT22;487;50.126;8.698;2024-02-28T17:16:25;9.60;27.70
997;DHT22;487;50.126;8.698;2024-02-28T17:21:22;9.50;28.40
997;DHT22;487;50.126;8.698;2024-02-28T17:23:50;9.40;38.50
997;DHT22;487;50.126;8.698;2024-02-28T17:26:18;9.40;38.60
997;DHT22;487;50.126;8.698;2024-02-28T17:28:46;9.40;31.40
997;DHT22;487;50.126;8.698;2024-02-28T17:31:15;9.40;34.70
997;DHT22;487;50.126;8.698;2024-02-28T17:33:43;9.40;36.60
997;DHT22;487;50.126;8.698;2024-02-28T17:36:14;9.40;48.60
997;DHT22;487;50.126;8.698;2024-02-28T17:38:42;9.50;41.10
997;DHT22;487;50.126;8.698;2024-02-28T17:41:12;9.50;43.30
997;DHT22;487;50.126;8.698;2024-02-28T17:43:39;9.40;44.70
997;DHT22;487;50.126;8.698;2024-02-28T17:46:08;9.40;55.00
997;DHT22;487;50.126;8.698;2024-02-28T17:48:36;9.50;48.40
997;DHT22;487;50.126;8.698;2024-02-28T17:51:05;9.50;49.20
997;DHT22;487;50.126;8.698;2024-02-28T17:58:36;9.50;48.10
997;DHT22;487;50.126;8.698;2024-02-28T18:01:04;9.50;47.90
997;DHT22;487;50.126;8.698;2024-02-28T18:03:34;9.50;58.10
997;DHT22;487;50.126;8.698;2024-02-28T18:06:02;9.40;56.40
997;DHT22;487;50.126;8.698;2024-02-28T18:08:31;9.40;45.40
997;DHT22;487;50.126;8.698;2024-02-28T18:11:01;9.40;56.70
997;DHT22;487;50.126;8.698;2024-02-28T18:13:30;9.40;45.90
997;DHT22;487;50.126;8.698;2024-02-28T18:15:58;9.40;44.70
997;DHT22;487;50.126;8.698;2024-02-28T18:18:27;9.30;44.50
997;DHT22;487;50.126;8.698;2024-02-28T18:23:24;9.30;45.50
997;DHT22;487;50.126;8.698;2024-02-28T18:26:02;9.30;55.60
997;DHT22;487;50.126;8.698;2024-02-28T18:28:30;9.20;46.40
997;DHT22;487;50.126;8.698;2024-02-28T18:31:03;9.20;55.80
997;DHT22;487;50.126;8.698;2024-02-28T18:33:32;9.20;46.60
997;DHT22;487;50.126;8.698;2024-02-28T18:36:01;9.10;57.20
997;DHT22;487;50.126;8.698;2024-02-28T18:38:29;9.00;48.50
997;DHT22;487;50.126;8.698;2024-02-28T18:43:28;9.00;49.20
997;DHT22;487;50.126;8.698;2024-02-28T18:45:56;8.90;49.70